Latest Weather Observations for Rutherglen

IDV60801

Issued at 6:32 pm EST Saturday 25 June 2016 (issued every 30 minutes, with the page automatically refreshed every 10 minutes)

About weather observations | Map of weather stations | Latest weather observations for VIC | Other Formats
Station Details ID: 082039 Name: RUTHERGLEN RESEARCH Lat: -36.10 Lon: 146.51 Height: 175.0 m
Data from the previous 72 hours. | See also: Recent months at Rutherglen
Date/Time
EST
Temp
°C
App
Temp
°C
Dew
Point
°C
Rel
Hum
%
Delta-T
°C
Wind Press
QNH
hPa
Press
MSL
hPa
Rain since
9am
mm
Dir  Spd
km/h
Gust
km/h
Spd
kts
Gust
kts
25/06:30pm 4.0 1.9 3.9 99 0.0 WSW 4 6 2 3 - - 0.0
25/06:00pm 4.4 1.8 4.0 97 0.2 W 7 7 4 4 - - 0.0
25/05:30pm 5.6 3.2 4.2 91 0.6 W 6 7 3 4 - - 0.0
25/05:00pm 6.9 3.6 4.4 84 1.1 WSW 11 13 6 7 - - 0.0
25/04:30pm 9.1 6.3 5.1 76 1.8 SW 9 15 5 8 - - 0.0
25/04:00pm 9.5 6.7 5.1 74 2.0 SSW 9 13 5 7 - - 0.0
25/03:30pm 8.5 5.7 5.1 79 1.5 WSW 9 13 5 7 - - 0.0
25/03:00pm 9.6 6.5 5.4 75 1.9 WSW 11 17 6 9 - - 0.0
25/02:30pm 9.3 5.9 5.9 79 1.6 WSW 13 19 7 10 - - 0.0
25/02:00pm 9.1 5.3 6.0 81 1.4 WSW 15 22 8 12 - - 0.0
25/01:30pm 8.9 5.6 6.5 85 1.1 SW 13 19 7 10 - - 0.0
25/01:00pm 8.5 5.5 5.8 83 1.2 SW 11 17 6 9 - - 0.0
25/12:30pm 8.3 4.6 6.3 87 0.9 SW 15 19 8 10 - - 0.0
25/12:00pm 7.5 4.3 5.1 85 1.1 SSW 11 20 6 11 - - 0.0
25/11:30am 6.8 3.3 5.3 90 0.7 WSW 13 17 7 9 - - 0.0
25/11:00am 6.3 2.9 5.7 96 0.3 WSW 13 17 7 9 - - 0.0
25/10:30am 5.6 2.1 5.5 99 0.0 WSW 13 19 7 10 - - 0.0
25/10:00am 4.6 1.3 4.5 99 0.0 WSW 11 15 6 8 - - 0.0
25/09:30am 3.5 0.8 3.5 100 0.0 WSW 7 9 4 5 - - 0.0
25/09:00am 2.3 -0.5 2.3 100 0.0 WNW 6 11 3 6 - - 1.0
25/08:30am -0.2 -2.2 -0.2 100 0.0 CALM 0 0 0 0 - - 1.0
25/08:00am -0.7 -2.8 -0.7 100 0.0 CALM 0 0 0 0 - - 1.0
25/07:30am -1.6 -3.8 -1.6 100 0.0 CALM 0 0 0 0 - - 1.0
25/07:00am -1.0 -3.1 -1.0 100 0.0 CALM 0 0 0 0 - - 1.0
25/06:30am -1.1 -3.2 -1.1 100 0.0 CALM 0 6 0 3 - - 1.0
25/06:00am -1.2 -5.1 -1.2 100 0.0 E 9 13 5 7 - - 1.0
25/05:30am 0.0 -2.7 0.0 100 0.0 SSE 4 6 2 3 - - 1.0
25/05:00am 0.1 -3.6 0.1 100 0.0 WSW 9 11 5 6 - - 1.0
25/04:30am 0.7 -2.9 0.7 100 0.0 WSW 9 11 5 6 - - 1.0
25/04:00am 0.7 -2.9 0.7 100 0.0 WSW 9 13 5 7 - - 1.0
25/03:30am 1.2 -2.7 1.2 100 0.0 W 11 13 6 7 - - 1.0
25/03:00am 0.8 -3.2 0.8 100 0.0 WSW 11 13 6 7 - - 1.0
25/02:30am 1.0 -2.9 0.9 99 0.0 W 11 13 6 7 - - 1.0
25/02:00am 1.1 -2.4 1.0 99 0.0 W 9 11 5 6 - - 1.0
25/01:30am 1.6 -0.2 1.5 99 0.0 CALM 0 2 0 1 - - 1.0
25/01:00am 2.6 -1.8 2.5 99 0.0 W 15 19 8 10 - - 1.0
25/12:30am 2.6 -1.5 2.5 99 0.0 W 13 19 7 10 - - 1.0
25/12:00am 2.7 -1.3 2.6 99 0.0 W 13 19 7 10 - - 1.0
 
Date/Time
EST
Temp
°C
App
Temp
°C
Dew
Point
°C
Rel
Hum
%
Delta-T
°C
Wind Press
QNH
hPa
Press
MSL
hPa
Rain since
9am
mm
Dir  Spd
km/h
Gust
km/h
Spd
kts
Gust
kts
24/11:30pm 2.4 -1.3 2.3 99 0.0 WSW 11 15 6 8 - - 1.0
24/11:00pm 3.1 -1.2 3.0 99 0.0 W 15 20 8 11 - - 1.0
24/10:30pm 3.3 -1.0 3.2 99 0.0 W 15 19 8 10 - - 1.0
24/10:00pm 3.4 -0.6 3.0 97 0.2 W 13 17 7 9 - - 1.0
24/09:30pm 4.3 -0.9 3.3 93 0.4 W 20 28 11 15 - - 1.0
24/09:00pm 4.2 -0.5 3.3 94 0.4 WSW 17 22 9 12 - - 1.0
24/08:30pm 4.2 -0.4 3.6 96 0.3 W 17 24 9 13 - - 1.0
24/08:00pm 4.2 -0.7 4.1 99 0.0 W 19 24 10 13 - - 1.0
24/07:30pm 4.4 -0.7 4.1 98 0.1 W 20 26 11 14 - - 1.0
24/07:00pm 5.0 -0.1 4.0 93 0.4 W 20 26 11 14 - - 1.0
24/06:30pm 5.1 0.1 3.4 89 0.7 W 19 24 10 13 - - 1.0
24/06:00pm 5.0 0.3 3.0 87 0.8 WSW 17 24 9 13 - - 1.0
24/05:30pm 5.3 0.0 3.0 85 1.0 WSW 20 30 11 16 - - 1.0
24/05:00pm 5.5 -0.5 3.5 87 0.8 WSW 24 35 13 19 - - 1.0
24/04:34pm 6.9 -0.4 4.7 86 1.0 WSW 32 50 17 27 - - 1.0
24/04:30pm 6.8 0.0 5.3 90 0.7 W 30 39 16 21 - - 1.0
24/04:00pm 6.7 -0.1 4.9 88 0.8 W 30 43 16 23 - - 1.0
24/03:30pm 7.9 1.2 5.4 84 1.1 W 30 39 16 21 - - 1.0
24/03:00pm 7.8 2.3 5.8 87 0.9 W 24 33 13 18 - - 0.8
24/02:31pm 7.8 1.6 6.1 89 0.8 W 28 46 15 25 - - 0.8
24/02:30pm 7.7 1.9 6.2 90 0.7 W 26 46 14 25 - - 0.8
24/02:00pm 7.2 1.2 6.9 98 0.1 WSW 28 41 15 22 - - 0.8
24/01:30pm 6.3 1.7 6.3 100 0.0 WSW 20 26 11 14 - - 0.8
24/01:00pm 6.7 0.6 6.6 99 0.0 W 28 39 15 21 - - 0.4
24/12:30pm 6.7 1.0 6.6 99 0.0 W 26 37 14 20 - - 0.4
24/12:00pm 6.7 1.0 6.7 100 0.0 W 26 32 14 17 - - 0.4
24/11:30am 6.7 1.4 6.6 99 0.0 W 24 37 13 20 - - 0.2
24/11:00am 6.4 1.0 6.4 100 0.0 W 24 35 13 19 - - 0.2
24/10:30am 6.7 1.4 6.6 99 0.0 W 24 33 13 18 - - 0.2
24/10:00am 6.8 0.6 6.1 95 0.3 WNW 28 39 15 21 - - 0.2
24/09:30am 6.4 1.4 6.4 100 0.0 W 22 30 12 16 - - 0.2
24/09:00am 6.1 -0.5 6.1 100 0.0 W 30 43 16 23 - - 7.0
24/08:30am 6.4 0.2 6.3 99 0.0 WNW 28 43 15 23 - - 7.0
24/08:00am 6.5 2.1 6.5 100 0.0 WNW 19 28 10 15 - - 7.0
24/07:30am 6.7 2.1 6.7 100 0.0 NW 20 30 11 16 - - 7.0
24/07:00am 6.9 3.7 6.9 100 0.0 NW 13 20 7 11 - - 6.8
24/06:30am 7.0 3.8 7.0 100 0.0 NW 13 22 7 12 - - 6.4
24/06:00am 6.9 4.1 6.9 100 0.0 NW 11 15 6 8 - - 6.2
24/05:30am 6.8 4.7 6.8 100 0.0 NW 7 13 4 7 - - 6.2
24/05:00am 6.9 4.1 6.9 100 0.0 NW 11 22 6 12 - - 4.2
24/04:30am 7.0 3.8 7.0 100 0.0 NW 13 20 7 11 - - 4.0
24/04:00am 6.9 5.8 6.9 100 0.0 NNW 2 7 1 4 - - 3.8
24/03:30am 6.8 4.9 6.8 100 0.0 N 6 9 3 5 - - 3.8
24/03:00am 6.8 5.3 6.8 100 0.0 NNE 4 9 2 5 - - 3.8
24/02:30am 6.7 4.8 6.7 100 0.0 N 6 9 3 5 - - 3.6
24/02:00am 6.7 5.2 6.7 100 0.0 NW 4 6 2 3 - - 3.4
24/01:30am 6.7 4.8 6.7 100 0.0 NNW 6 7 3 4 - - 3.4
24/01:00am 6.7 4.2 6.7 100 0.0 NE 9 13 5 7 - - 3.4
24/12:30am 6.7 4.8 6.7 100 0.0 W 6 7 3 4 - - 3.2
24/12:00am 6.7 3.5 6.7 100 0.0 W 13 17 7 9 - - 3.2
 
Date/Time
EST
Temp
°C
App
Temp
°C
Dew
Point
°C
Rel
Hum
%
Delta-T
°C
Wind Press
QNH
hPa
Press
MSL
hPa
Rain since
9am
mm
Dir  Spd
km/h
Gust
km/h
Spd
kts
Gust
kts
23/11:30pm 6.7 1.4 6.7 100 0.0 W 24 35 13 19 - - 2.6
23/11:00pm 6.3 -0.7 6.2 99 0.0 W 32 56 17 30 - - 1.4
23/10:52pm 9.4 5.0 8.9 97 0.2 NNW 22 56 12 30 - - 0.4
23/10:30pm 10.8 7.8 10.8 100 0.0 N 17 35 9 19 - - 0.2
23/10:00pm 10.5 7.8 10.5 100 0.0 N 15 22 8 12 - - 0.2
23/09:30pm 10.4 8.1 10.4 100 0.0 NNE 13 24 7 13 - - 0.2
23/09:00pm 10.4 8.1 10.4 100 0.0 N 13 28 7 15 - - 0.2
23/08:30pm 10.2 8.2 10.2 100 0.0 N 11 22 6 12 - - 0.2
23/08:00pm 10.4 8.1 10.4 100 0.0 N 13 20 7 11 - - 0.2
23/07:30pm 10.3 8.3 10.3 100 0.0 NNE 11 19 6 10 - - 0.2
23/07:00pm 10.5 8.2 10.5 100 0.0 N 13 26 7 14 - - 0.2
23/06:30pm 10.6 8.3 10.6 100 0.0 N 13 20 7 11 - - 0.2
23/06:00pm 10.7 8.9 10.7 100 0.0 N 11 24 6 13 - - 0.2
23/05:30pm 10.6 8.3 10.6 100 0.0 NNE 13 28 7 15 - - 0.2
23/05:00pm 10.5 8.2 10.5 100 0.0 NNE 13 20 7 11 - - 0.2
23/04:30pm 10.4 8.5 10.4 100 0.0 N 11 17 6 9 - - 0.2
23/04:00pm 11.1 9.2 10.6 97 0.3 N 11 19 6 10 - - 0.2
23/03:30pm 11.6 8.9 10.2 91 0.7 N 15 24 8 13 - - 0.2
23/03:00pm 11.8 8.6 9.9 88 1.0 NNE 17 26 9 14 - - 0.0
23/02:30pm 11.9 9.9 10.0 88 1.0 N 11 20 6 11 - - 0.0
23/02:00pm 12.1 9.2 9.7 85 1.2 N 15 24 8 13 - - 0.0
23/01:30pm 12.1 9.2 9.7 85 1.2 N 15 26 8 14 - - 0.0
23/01:00pm 12.1 8.8 9.5 84 1.3 N 17 32 9 17 - - 0.0
23/12:30pm 12.5 10.0 11.1 91 0.7 N 15 24 8 13 - - 0.0
23/12:00pm 12.2 9.4 10.1 87 1.1 N 15 26 8 14 - - 0.0
23/11:30am 12.0 9.3 10.2 89 0.9 N 15 28 8 15 - - 0.0
23/11:00am 11.5 9.0 9.6 88 1.0 N 13 28 7 15 - - 0.0
23/10:30am 11.1 8.7 9.9 92 0.6 N 13 24 7 13 - - 0.0
23/10:00am 10.8 9.2 10.3 97 0.3 N 9 19 5 10 - - 0.0
23/09:30am 10.2 8.6 10.1 99 0.1 NNE 9 17 5 9 - - 0.0
23/09:00am 9.8 7.7 9.7 99 0.1 NNE 11 19 6 10 - - 0.2
23/08:30am 9.7 7.2 9.6 99 0.1 N 13 17 7 9 - - 0.2
23/08:00am 9.3 7.1 9.3 100 0.0 NNE 11 17 6 9 - - 0.2
23/07:30am 9.2 6.6 9.2 100 0.0 N 13 20 7 11 - - 0.2
23/07:00am 9.2 6.6 9.2 100 0.0 N 13 19 7 10 - - 0.2
23/06:30am 9.2 7.0 9.2 100 0.0 N 11 17 6 9 - - 0.2
23/06:00am 9.2 7.3 9.2 100 0.0 N 9 15 5 8 - - 0.2
23/05:30am 9.3 7.4 9.2 99 0.0 N 9 15 5 8 - - 0.2
23/05:00am 9.3 7.1 9.2 99 0.0 N 11 19 6 10 - - 0.2
23/04:30am 9.3 7.4 9.2 99 0.0 N 9 13 5 7 - - 0.2
23/04:00am 9.4 7.9 9.3 99 0.0 N 7 13 4 7 - - 0.2
23/03:30am 9.6 8.4 9.5 99 0.1 N 6 11 3 6 - - 0.2
23/03:00am 9.7 8.3 9.6 99 0.1 NNW 7 11 4 6 - - 0.2
23/02:30am 9.8 8.4 9.5 98 0.2 NNW 7 15 4 8 - - 0.2
23/02:00am 9.8 8.4 9.5 98 0.2 N 7 17 4 9 - - 0.2
23/01:30am 9.8 8.6 9.5 98 0.2 N 6 11 3 6 - - 0.2
23/01:00am 9.9 8.7 9.4 97 0.3 NNW 6 11 3 6 - - 0.2
23/12:30am 10.1 8.4 10.0 99 0.1 N 9 17 5 9 - - 0.2
23/12:00am 10.1 8.4 10.0 99 0.1 N 9 15 5 8 - - 0.2
 
Date/Time
EST
Temp
°C
App
Temp
°C
Dew
Point
°C
Rel
Hum
%
Delta-T
°C
Wind Press
QNH
hPa
Press
MSL
hPa
Rain since
9am
mm
Dir  Spd
km/h
Gust
km/h
Spd
kts
Gust
kts
22/11:30pm 9.9 8.2 9.9 100 0.0 N 9 13 5 7 - - 0.2
22/11:00pm 9.3 8.0 9.3 100 0.0 NNE 6 9 3 5 - - 0.2
22/10:30pm 9.7 8.9 9.7 100 0.0 NNW 4 7 2 4 - - 0.2
22/10:00pm 10.0 8.7 9.9 99 0.1 N 7 11 4 6 - - 0.2
22/09:30pm 9.7 8.3 9.6 99 0.1 N 7 13 4 7 - - 0.2
22/09:00pm 10.1 8.7 9.6 97 0.3 N 7 13 4 7 - - 0.2
22/08:30pm 10.0 8.5 9.2 95 0.4 N 7 11 4 6 - - 0.2
22/08:00pm 10.6 9.1 9.2 91 0.7 NNW 7 13 4 7 - - 0.2
22/07:30pm 10.6 8.7 9.0 90 0.8 NNW 9 13 5 7 - - 0.2
22/07:00pm 10.4 8.9 9.2 92 0.6 NNW 7 17 4 9 - - 0.2

Other Formats:

Comma delimited format used in spreadsheet applications
http://www.bom.gov.au/fwo/IDV60801/IDV60801.95837.axf

JavaScript Object Notation format (JSON) in row-major order
http://www.bom.gov.au/fwo/IDV60801/IDV60801.95837.json